LESA/SLM METAR and TAF weather

Enter ICAO airport designator
Station Type Date Time Source
LESA METAR 2022/12/04 05:00 UTC NOAA

LESA 040500Z AUTO VRB01KT 6000 OVC031 M02/M02 Q1006


Station Type Date Time Source
LESA Decoded METAR 2022/12/04 05:00 UTC NOAA

Salamanca / Matacan, Spain (LESA) 40-57N 005-30W 795M
Dec 04, 2022 - 12:00 AM EST / 2022.12.04 0500 UTC
Wind: Variable at 1 MPH (1 KT):0
Visibility: 3 mile(s):0
Sky conditions: overcast
Temperature: 28 F (-2 C)
Dew Point: 28 F (-2 C)
Relative Humidity: 100%
Pressure (altimeter): 29.71 in. Hg (1006 hPa)
ob: LESA 040500Z AUTO VRB01KT 6000 OVC031 M02/M02 Q1006
cycle: 5

Station Type Date Time Source
LESA TAF 2022/12/04 03:28 UTC NOAA

TAF LESA 040200Z 0403/0503 VRB05KT 9999 SCT020 TX07/0415Z TNM04/0407Z PROB40
TEMPO 0403/0415 2500 BR BCFG BKN010 PROB40
TEMPO 0403/0415 0100 FZFG VV002 PROB30
TEMPO 0406/0415 0800 SNRA FZRA BKN004 PROB30
TEMPO 0412/0418 20010KT

Example: see airport list